Time;durP1;ratioP1;P1;durP2;ratioP2;P2;SDS_P1;SDS_P2;PMS_P1;PMS_P2;Temp;Humidity;BMP_temperature;BMP_pressure;BME280_temperature;BME280_humidity;BME280_pressure;Samples;Min_cycle;Max_cycle;Signal;HPM_P1;HPM_P2
2022/06/14 00:00:57;;;;;;;10.25;3.28;;;10.00;99.90;;;;;;5002096;28;20037;-73
2022/06/14 00:03:33;;;;;;;18.27;3.97;;;10.10;99.90;;;;;;5002129;28;20054;-73
2022/06/14 00:06:20;;;;;;;17.15;3.80;;;10.10;99.90;;;;;;5002983;28;20076;-73
2022/06/14 00:08:47;;;;;;;16.00;3.53;;;10.10;99.90;;;;;;5013270;28;20041;-72
2022/06/14 00:11:19;;;;;;;12.95;3.30;;;10.10;99.90;;;;;;5001227;28;20084;-73
2022/06/14 00:13:46;;;;;;;14.40;3.33;;;10.20;99.90;;;;;;5003469;28;20064;-73
2022/06/14 00:16:12;;;;;;;16.52;3.55;;;10.20;99.90;;;;;;5002674;28;20038;-73
2022/06/14 00:18:39;;;;;;;11.40;3.63;;;10.20;99.90;;;;;;4986967;28;20450;-72
2022/06/14 00:21:04;;;;;;;16.00;3.60;;;10.30;99.90;;;;;;4999597;28;20037;-73
2022/06/14 00:23:31;;;;;;;12.80;3.33;;;10.30;99.90;;;;;;5004963;28;20379;-72
2022/06/14 00:25:58;;;;;;;13.45;3.60;;;10.40;99.90;;;;;;5002111;28;20458;-73
2022/06/14 00:28:26;;;;;;;14.07;3.47;;;10.40;99.90;;;;;;5001922;28;20037;-72
2022/06/14 00:30:56;;;;;;;12.70;3.42;;;10.40;99.90;;;;;;4983884;28;20053;-73
2022/06/14 00:33:23;;;;;;;16.00;3.88;;;10.50;99.90;;;;;;4997999;28;20042;-72
2022/06/14 00:35:55;;;;;;;15.52;4.07;;;10.50;99.90;;;;;;4989382;28;20037;-73
2022/06/14 00:38:21;;;;;;;14.70;3.83;;;10.50;99.90;;;;;;5003201;28;20048;-72
2022/06/14 00:40:55;;;;;;;12.90;3.33;;;10.50;99.90;;;;;;5001885;28;20034;-73
2022/06/14 00:43:21;;;;;;;17.63;3.47;;;10.50;99.90;;;;;;4999559;28;20081;-73
2022/06/14 00:45:48;;;;;;;14.40;3.78;;;10.50;99.90;;;;;;4998631;28;20136;-72
2022/06/14 00:48:32;;;;;;;19.30;4.20;;;10.40;99.90;;;;;;4999566;28;20519;-73
2022/06/14 00:51:10;;;;;;;14.45;3.70;;;10.40;99.90;;;;;;4998729;28;20038;-73
2022/06/14 00:54:16;;;;;;;12.40;3.45;;;10.30;99.90;;;;;;5004822;28;20498;-73
2022/06/14 00:57:06;;;;;;;12.07;3.40;;;10.20;99.90;;;;;;4994120;28;20112;-72
2022/06/14 00:59:48;;;;;;;11.98;3.90;;;10.10;99.90;;;;;;4993788;28;20049;-72
2022/06/14 01:02:20;;;;;;;14.85;4.25;;;10.10;99.90;;;;;;4995971;28;20054;-73
2022/06/14 01:04:47;;;;;;;15.20;3.45;;;10.00;99.90;;;;;;5014500;28;20052;-73
2022/06/14 01:07:24;;;;;;;18.77;4.47;;;10.00;99.90;;;;;;5000596;28;20095;-72
2022/06/14 01:09:56;;;;;;;14.00;3.63;;;10.00;99.90;;;;;;4986358;28;20388;-73
2022/06/14 01:12:26;;;;;;;14.00;3.88;;;9.90;99.90;;;;;;5001212;28;20045;-73
2022/06/14 01:15:01;;;;;;;14.25;4.55;;;9.90;99.90;;;;;;4999966;28;20041;-73
2022/06/14 01:17:28;;;;;;;16.92;3.38;;;9.80;99.90;;;;;;4991024;28;20046;-72
2022/06/14 01:19:54;;;;;;;15.65;3.45;;;9.80;99.90;;;;;;4991747;28;20054;-73
2022/06/14 01:22:21;;;;;;;10.52;3.67;;;9.80;99.90;;;;;;4986458;28;20046;-73
2022/06/14 01:24:47;;;;;;;19.08;4.80;;;9.70;99.90;;;;;;4985995;28;20050;-73
2022/06/14 01:27:17;;;;;;;14.25;3.85;;;9.60;99.90;;;;;;4996851;28;20045;-73
2022/06/14 01:29:54;;;;;;;13.68;3.90;;;9.60;99.90;;;;;;4995634;28;20053;-73
2022/06/14 01:32:20;;;;;;;16.55;4.38;;;9.60;99.90;;;;;;5001435;28;20129;-73
2022/06/14 01:34:53;;;;;;;14.18;3.95;;;9.50;99.90;;;;;;4997805;28;20100;-72
2022/06/14 01:37:21;;;;;;;16.25;3.90;;;9.50;99.90;;;;;;5000080;28;20136;-72
2022/06/14 01:39:48;;;;;;;20.00;4.60;;;9.60;99.90;;;;;;5001870;28;20046;-72
2022/06/14 01:42:42;;;;;;;18.10;4.70;;;9.40;99.90;;;;;;4992039;28;20036;-73
2022/06/14 01:45:14;;;;;;;17.48;4.10;;;9.40;99.90;;;;;;4996604;28;20045;-72
2022/06/14 01:47:51;;;;;;;14.10;4.90;;;9.30;99.90;;;;;;4997990;28;20045;-72
2022/06/14 01:53:42;;;;;;;12.75;4.10;;;9.30;99.90;;;;;;5019394;28;20057;-72
2022/06/14 01:56:26;;;;;;;13.15;4.10;;;9.20;99.90;;;;;;4992075;28;20045;-72
2022/06/14 01:58:56;;;;;;;12.65;4.53;;;9.20;99.90;;;;;;4987937;28;20049;-72
2022/06/14 02:01:48;;;;;;;14.20;4.33;;;9.20;99.90;;;;;;4997100;28;20081;-72
2022/06/14 02:04:38;;;;;;;15.50;4.53;;;9.20;99.90;;;;;;5016237;28;20511;-73
2022/06/14 02:07:10;;;;;;;12.52;4.57;;;9.10;99.90;;;;;;4986032;28;20049;-72
2022/06/14 02:10:02;;;;;;;13.93;4.40;;;9.10;99.90;;;;;;4999247;28;20096;-73
2022/06/14 02:12:46;;;;;;;12.68;4.13;;;9.10;99.90;;;;;;4984655;28;20257;-73
2022/06/14 02:15:48;;;;;;;13.73;4.10;;;9.00;99.90;;;;;;5001990;28;20056;-72
2022/06/14 02:18:31;;;;;;;15.25;4.25;;;9.00;99.90;;;;;;4986970;28;20153;-73
2022/06/14 02:21:06;;;;;;;11.45;4.70;;;9.00;99.90;;;;;;4969818;28;20074;-72
2022/06/14 02:23:38;;;;;;;15.52;4.88;;;8.90;99.90;;;;;;4982327;28;20109;-74
2022/06/14 02:26:16;;;;;;;15.43;5.15;;;8.90;99.90;;;;;;4998709;28;20058;-72
2022/06/14 02:28:49;;;;;;;12.45;4.65;;;8.90;99.90;;;;;;4969278;28;20048;-73
2022/06/14 02:31:24;;;;;;;15.05;4.40;;;8.90;99.90;;;;;;5002379;28;20461;-73
2022/06/14 02:34:05;;;;;;;10.75;4.10;;;8.90;99.90;;;;;;4972481;28;20046;-72
2022/06/14 02:36:38;;;;;;;13.18;4.85;;;8.90;99.90;;;;;;4988363;28;20045;-72
2022/06/14 02:39:11;;;;;;;13.75;4.93;;;9.00;99.90;;;;;;4988544;28;20049;-72
2022/06/14 02:41:55;;;;;;;15.82;5.13;;;9.40;99.90;;;;;;4975150;28;20556;-71
2022/06/14 02:44:45;;;;;;;10.85;4.90;;;8.90;99.90;;;;;;4989089;28;20050;-72
2022/06/14 02:47:26;;;;;;;17.00;4.30;;;8.90;99.90;;;;;;5003813;28;20049;-72
2022/06/14 02:49:57;;;;;;;13.63;4.90;;;8.90;99.90;;;;;;5005107;28;20050;-72
2022/06/14 02:52:46;;;;;;;16.48;4.50;;;8.90;99.90;;;;;;4970543;28;20060;-72
2022/06/14 02:55:28;;;;;;;12.13;4.40;;;8.90;99.90;;;;;;4995769;28;20045;-72
2022/06/14 02:58:08;;;;;;;15.52;4.57;;;8.90;99.90;;;;;;5005501;28;20050;-72
2022/06/14 03:00:44;;;;;;;17.88;4.75;;;8.90;99.90;;;;;;4988909;28;20038;-72
2022/06/14 03:03:38;;;;;;;13.23;4.93;;;8.90;99.90;;;;;;5004403;28;20177;-72
2022/06/14 03:06:29;;;;;;;14.82;4.88;;;8.80;99.90;;;;;;5001050;28;20771;-72
2022/06/14 03:09:12;;;;;;;15.32;4.65;;;8.80;99.90;;;;;;4985132;28;20514;-72
2022/06/14 03:12:09;;;;;;;15.05;4.82;;;8.90;99.90;;;;;;4988615;28;20129;-72
2022/06/14 03:14:40;;;;;;;13.60;4.63;;;8.80;99.90;;;;;;4986671;28;20042;-73
2022/06/14 03:17:15;;;;;;;15.80;4.55;;;8.80;99.90;;;;;;5005096;28;20569;-72
2022/06/14 03:19:50;;;;;;;20.60;4.95;;;8.80;99.90;;;;;;4991983;28;20049;-72
2022/06/14 03:22:53;;;;;;;15.52;4.75;;;8.90;99.90;;;;;;4986505;28;20502;-72
2022/06/14 03:25:43;;;;;;;12.52;4.60;;;8.90;99.90;;;;;;4988553;28;20066;-72
2022/06/14 03:28:25;;;;;;;14.73;4.72;;;8.90;99.90;;;;;;4987033;28;20049;-72
2022/06/14 03:31:00;;;;;;;16.40;5.53;;;8.90;99.90;;;;;;5000776;28;20046;-73
2022/06/14 03:33:47;;;;;;;15.02;4.28;;;9.00;99.90;;;;;;4987766;28;20641;-72
2022/06/14 03:36:15;;;;;;;12.60;4.32;;;8.90;99.90;;;;;;4973988;28;20054;-72
2022/06/14 03:38:51;;;;;;;16.77;4.53;;;8.90;99.90;;;;;;4987135;28;20593;-72
2022/06/14 03:41:21;;;;;;;14.45;4.68;;;9.00;99.90;;;;;;4987982;28;20096;-72
2022/06/14 03:43:49;;;;;;;17.98;4.68;;;9.00;99.90;;;;;;4988238;28;20037;-73
2022/06/14 03:46:25;;;;;;;12.48;4.57;;;9.00;99.90;;;;;;4993905;28;20759;-72
2022/06/14 03:48:59;;;;;;;13.50;4.68;;;9.00;99.90;;;;;;4960103;28;20127;-72
2022/06/14 03:52:13;;;;;;;14.13;4.88;;;9.00;99.90;;;;;;4977120;28;20045;-72
2022/06/14 03:54:53;;;;;;;14.52;5.07;;;9.00;99.90;;;;;;4976792;28;20061;-72
2022/06/14 03:57:47;;;;;;;12.32;5.30;;;9.00;99.90;;;;;;4976607;28;20053;-72
2022/06/14 04:00:25;;;;;;;13.50;4.88;;;9.00;99.90;;;;;;4959613;28;20046;-72
2022/06/14 04:03:03;;;;;;;16.20;4.72;;;9.10;99.90;;;;;;4990359;28;20053;-72
2022/06/14 04:05:37;;;;;;;15.40;4.88;;;9.10;99.90;;;;;;4976333;28;20053;-71
2022/06/14 04:08:21;;;;;;;15.38;4.80;;;9.10;99.90;;;;;;4992360;28;20463;-72
2022/06/14 04:11:28;;;;;;;16.48;4.70;;;9.20;99.90;;;;;;4971518;28;20045;-72
2022/06/14 04:14:05;;;;;;;11.63;4.10;;;9.20;99.90;;;;;;4978032;28;20052;-72
2022/06/14 04:16:36;;;;;;;16.25;5.30;;;9.30;99.90;;;;;;4985366;28;20479;-71
2022/06/14 04:19:19;;;;;;;14.15;5.93;;;9.40;99.90;;;;;;4975190;28;20159;-72
2022/06/14 04:21:48;;;;;;;15.05;4.80;;;9.50;99.90;;;;;;4961483;28;20128;-73
2022/06/14 04:24:36;;;;;;;13.38;4.43;;;9.60;99.90;;;;;;4989792;28;20414;-72
2022/06/14 04:27:20;;;;;;;13.60;4.45;;;9.70;99.90;;;;;;4992564;28;20046;-71
2022/06/14 04:29:56;;;;;;;14.18;4.72;;;9.80;99.90;;;;;;4980948;28;20045;-71
2022/06/14 04:32:48;;;;;;;17.90;4.38;;;10.00;99.90;;;;;;4976456;28;20050;-71
2022/06/14 04:35:26;;;;;;;13.80;5.07;;;10.70;99.90;;;;;;4969102;28;20061;-72
2022/06/14 04:38:04;;;;;;;15.35;4.63;;;11.70;99.90;;;;;;4984844;28;20068;-72
2022/06/14 04:40:40;;;;;;;11.90;4.30;;;12.60;99.90;;;;;;5001847;28;20045;-72
2022/06/14 04:43:14;;;;;;;14.43;3.78;;;13.80;99.90;;;;;;5003019;28;20041;-72
2022/06/14 04:45:56;;;;;;;13.23;3.88;;;15.00;99.90;;;;;;4983120;28;20406;-71
2022/06/14 04:48:32;;;;;;;12.07;3.40;;;15.90;99.90;;;;;;4985269;28;20046;-72
2022/06/14 04:51:10;;;;;;;14.27;3.30;;;16.50;99.90;;;;;;4969697;28;20046;-72
2022/06/14 04:53:46;;;;;;;10.75;3.47;;;16.40;99.90;;;;;;5002611;28;20518;-72
2022/06/14 04:56:47;;;;;;;11.65;3.47;;;16.10;99.90;;;;;;4984990;28;20462;-72
2022/06/14 04:59:18;;;;;;;12.55;3.50;;;15.60;99.90;;;;;;4990427;28;20132;-72
2022/06/14 05:01:48;;;;;;;12.25;3.28;;;15.20;99.90;;;;;;4988013;28;20099;-72
2022/06/14 05:04:30;;;;;;;11.00;3.13;;;14.80;99.90;;;;;;4985386;28;20057;-72
2022/06/14 05:07:18;;;;;;;15.57;3.50;;;14.50;99.90;;;;;;5007723;28;20041;-72
2022/06/14 05:10:25;;;;;;;13.25;3.67;;;14.30;99.90;;;;;;4987875;28;20466;-72
2022/06/14 05:13:04;;;;;;;13.60;3.15;;;14.30;99.90;;;;;;4904158;29;20058;-72
2022/06/14 05:15:45;;;;;;;14.35;3.13;;;14.20;99.90;;;;;;4898243;29;20557;-72
2022/06/14 05:18:25;;;;;;;12.13;3.33;;;14.30;99.90;;;;;;4948235;28;20137;-72
2022/06/14 05:21:02;;;;;;;11.15;3.33;;;14.30;99.90;;;;;;4990898;28;20096;-72
2022/06/14 05:23:45;;;;;;;13.02;3.20;;;14.60;99.90;;;;;;4989177;28;20080;-72
2022/06/14 05:26:29;;;;;;;16.20;3.10;;;15.30;99.90;;;;;;5003515;28;20499;-72
2022/06/14 05:29:25;;;;;;;13.60;3.55;;;17.00;99.90;;;;;;4988258;28;20136;-72
2022/06/14 05:32:09;;;;;;;10.45;3.00;;;18.40;99.90;;;;;;4986114;28;20609;-72
2022/06/14 05:35:12;;;;;;;8.88;2.70;;;18.20;99.90;;;;;;4987526;28;20042;-73
2022/06/14 05:38:05;;;;;;;10.63;3.40;;;17.70;99.90;;;;;;4989109;28;20046;-73
2022/06/14 05:40:44;;;;;;;9.70;2.92;;;17.10;99.90;;;;;;4989366;28;20059;-73
2022/06/14 05:43:26;;;;;;;10.57;2.55;;;16.50;99.90;;;;;;4986361;28;20054;-73
2022/06/14 05:45:57;;;;;;;12.38;2.90;;;16.20;99.90;;;;;;4962386;28;20049;-73
2022/06/14 05:48:51;;;;;;;13.13;2.70;;;15.90;99.90;;;;;;4973453;28;20471;-73
2022/06/14 05:51:20;;;;;;;13.30;3.33;;;15.60;99.90;;;;;;4980329;28;20133;-72
2022/06/14 05:53:54;;;;;;;9.75;3.05;;;15.40;99.90;;;;;;4981179;28;20066;-72
2022/06/14 05:56:22;;;;;;;11.77;2.85;;;15.40;99.90;;;;;;4964090;28;20081;-72
2022/06/14 05:58:52;;;;;;;12.25;2.95;;;16.50;99.90;;;;;;4996571;28;20136;-72
2022/06/14 06:01:32;;;;;;;11.20;2.85;;;18.00;99.90;;;;;;5000532;28;20042;-72
2022/06/14 06:04:09;;;;;;;8.23;2.40;;;19.60;99.90;;;;;;4995528;28;20437;-72
2022/06/14 06:06:43;;;;;;;9.90;2.80;;;20.80;99.90;;;;;;5001601;28;20042;-73
2022/06/14 06:09:25;;;;;;;9.70;2.67;;;21.60;99.90;;;;;;4987050;28;20058;-71
2022/06/14 06:11:53;;;;;;;11.82;2.50;;;22.00;99.90;;;;;;4991811;28;20116;-72
2022/06/14 06:14:33;;;;;;;10.13;2.45;;;22.80;99.90;;;;;;4995140;28;20125;-72
2022/06/14 06:17:14;;;;;;;9.07;2.45;;;23.50;99.90;;;;;;5005912;28;20141;-73
2022/06/14 06:19:57;;;;;;;8.95;2.47;;;23.90;99.90;;;;;;5004951;28;20414;-72
2022/06/14 06:22:46;;;;;;;9.88;2.65;;;23.90;99.90;;;;;;4986403;28;20041;-73
2022/06/14 06:25:14;;;;;;;10.90;2.42;;;22.30;99.90;;;;;;4990319;28;20056;-72
2022/06/14 06:27:56;;;;;;;11.32;2.35;;;21.10;99.90;;;;;;4995340;28;20128;-73
2022/06/14 06:30:35;;;;;;;8.82;2.33;;;20.10;99.90;;;;;;5007918;28;20128;-73
2022/06/14 06:33:01;;;;;;;8.48;2.20;;;19.30;99.90;;;;;;4995364;28;20042;-73
2022/06/14 06:35:43;;;;;;;9.85;2.63;;;18.60;99.90;;;;;;5008195;28;20056;-72
2022/06/14 06:38:58;;;;;;;9.57;2.50;;;18.10;99.90;;;;;;5000516;28;21272;-72
2022/06/14 06:41:49;;;;;;;8.93;2.20;;;17.60;99.90;;;;;;4914818;29;20244;-73
2022/06/14 06:44:37;;;;;;;9.93;2.30;;;17.30;99.90;;;;;;4970951;28;20151;-75
2022/06/14 06:47:37;;;;;;;8.32;1.90;;;17.10;99.90;;;;;;4996555;28;20042;-74
2022/06/14 06:50:22;;;;;;;7.80;2.10;;;16.90;99.90;;;;;;4956273;28;20093;-74
2022/06/14 06:52:51;;;;;;;8.98;2.20;;;16.80;99.90;;;;;;5001620;28;20104;-74
2022/06/14 06:55:46;;;;;;;11.65;2.15;;;16.70;99.90;;;;;;5001074;28;20095;-75
2022/06/14 06:58:46;;;;;;;8.63;1.75;;;16.60;99.90;;;;;;5005553;28;20034;-74
2022/06/14 07:01:18;;;;;;;9.90;2.35;;;16.50;99.90;;;;;;4988639;28;20506;-74
2022/06/14 07:04:07;;;;;;;9.32;2.05;;;16.50;99.90;;;;;;5007668;28;20049;-74
2022/06/14 07:06:43;;;;;;;9.45;2.40;;;16.50;99.90;;;;;;5003225;28;20111;-74
2022/06/14 07:09:41;;;;;;;6.28;1.45;;;16.60;99.90;;;;;;4972318;28;20125;-74
2022/06/14 07:12:22;;;;;;;8.13;1.98;;;16.70;99.90;;;;;;5002229;28;20863;-74
2022/06/14 07:14:58;;;;;;;9.93;1.90;;;16.90;99.90;;;;;;5006269;28;20121;-74
2022/06/14 07:17:43;;;;;;;8.95;1.77;;;17.20;99.90;;;;;;4989878;28;20053;-74
2022/06/14 07:20:35;;;;;;;10.98;2.40;;;17.60;99.90;;;;;;5002764;28;20042;-74
2022/06/14 07:23:21;;;;;;;8.60;1.67;;;18.30;99.90;;;;;;5006449;28;20415;-75
2022/06/14 07:26:00;;;;;;;6.88;1.77;;;18.70;99.90;;;;;;5006554;28;20092;-75
2022/06/14 07:28:29;;;;;;;7.05;1.67;;;19.00;99.90;;;;;;5007202;28;20045;-74
2022/06/14 07:31:00;;;;;;;6.72;1.40;;;19.30;99.90;;;;;;5007544;28;20125;-73
2022/06/14 07:33:28;;;;;;;4.88;1.20;;;19.50;99.90;;;;;;5007173;28;20121;-74
2022/06/14 07:36:02;;;;;;;6.30;1.60;;;19.70;99.90;;;;;;5007237;28;20045;-73
2022/06/14 07:38:33;;;;;;;6.68;1.70;;;20.00;99.90;;;;;;5021549;28;20052;-73
2022/06/14 07:41:24;;;;;;;6.78;1.88;;;20.10;99.90;;;;;;5001506;28;20096;-74
2022/06/14 07:43:59;;;;;;;6.13;1.70;;;20.40;99.90;;;;;;5007867;28;20444;-73
2022/06/14 07:46:39;;;;;;;6.28;1.50;;;20.60;99.90;;;;;;5006335;28;20085;-74
2022/06/14 07:49:30;;;;;;;6.30;1.30;;;21.00;99.90;;;;;;4991177;28;20499;-73
2022/06/14 07:52:20;;;;;;;7.80;1.70;;;21.30;99.90;;;;;;5008951;28;20081;-74
2022/06/14 07:54:50;;;;;;;6.65;1.60;;;21.60;99.90;;;;;;4974057;28;20049;-75
2022/06/14 07:57:28;;;;;;;7.68;1.67;;;21.50;99.90;;;;;;5007784;28;20408;-75
2022/06/14 08:03:30;;;;;;;5.65;1.40;;;20.70;99.90;;;;;;5016357;28;20517;-74
2022/06/14 08:05:58;;;;;;;6.60;1.58;;;20.80;99.90;;;;;;5006363;28;20058;-74
2022/06/14 08:08:30;;;;;;;6.07;1.52;;;21.20;99.90;;;;;;5005538;28;20050;-74
2022/06/14 08:11:01;;;;;;;7.53;1.60;;;21.70;99.90;;;;;;5005761;28;20041;-75
2022/06/14 08:13:37;;;;;;;7.15;1.55;;;21.90;99.90;;;;;;5007928;28;20050;-74
2022/06/14 08:16:06;;;;;;;5.68;1.40;;;22.10;99.90;;;;;;4990873;28;20104;-75
2022/06/14 08:18:45;;;;;;;5.35;1.40;;;22.40;99.90;;;;;;5023345;28;20518;-74
2022/06/14 08:21:30;;;;;;;5.28;1.80;;;22.60;99.90;;;;;;5007868;28;20168;-74
2022/06/14 08:24:08;;;;;;;5.88;1.58;;;22.50;99.90;;;;;;5007041;28;20057;-75
2022/06/14 08:26:40;;;;;;;7.35;1.55;;;22.10;99.90;;;;;;5010137;28;20050;-74
2022/06/14 08:29:25;;;;;;;8.45;2.33;;;21.60;99.90;;;;;;5006805;28;20549;-75
2022/06/14 08:31:57;;;;;;;5.18;1.33;;;21.00;99.90;;;;;;5000758;28;20172;-75
2022/06/14 08:34:30;;;;;;;6.25;1.60;;;20.50;99.90;;;;;;5007497;28;20390;-75
2022/06/14 08:36:59;;;;;;;5.30;1.25;;;20.10;99.90;;;;;;5020100;28;20068;-74
2022/06/14 08:39:41;;;;;;;5.95;1.15;;;19.80;99.90;;;;;;4987865;28;20095;-74
2022/06/14 08:42:25;;;;;;;9.23;1.98;;;19.50;99.90;;;;;;5006173;28;20038;-74
2022/06/14 08:45:09;;;;;;;6.60;1.58;;;19.20;99.90;;;;;;5006956;28;20344;-75
2022/06/14 08:48:23;;;;;;;6.40;1.20;;;19.00;99.90;;;;;;5007746;28;20100;-75
2022/06/14 08:51:10;;;;;;;4.78;1.55;;;19.40;99.90;;;;;;5006009;28;20565;-75
2022/06/14 08:54:13;;;;;;;5.03;1.45;;;20.20;99.90;;;;;;5007959;28;20081;-75
2022/06/14 08:56:54;;;;;;;4.55;1.30;;;20.90;99.90;;;;;;5003575;28;20045;-75
2022/06/14 08:59:35;;;;;;;3.45;1.13;;;21.40;99.90;;;;;;4992215;28;20059;-75
2022/06/14 09:02:13;;;;;;;4.78;1.60;;;21.70;99.90;;;;;;5001461;28;20402;-74
2022/06/14 09:05:15;;;;;;;7.45;1.73;;;22.20;99.90;;;;;;5005444;28;20455;-75
2022/06/14 09:08:10;;;;;;;6.97;1.65;;;22.80;99.90;;;;;;5004923;28;20145;-74
2022/06/14 09:11:14;;;;;;;4.85;1.30;;;23.40;99.90;;;;;;5010480;28;20045;-74
2022/06/14 09:14:10;;;;;;;5.18;1.48;;;23.30;99.90;;;;;;4965710;28;20049;-74
2022/06/14 09:16:48;;;;;;;3.65;1.23;;;22.90;99.80;;;;;;4999125;28;20061;-74
2022/06/14 09:19:51;;;;;;;4.95;1.38;;;22.40;99.90;;;;;;5003204;28;20117;-75
2022/06/14 09:22:48;;;;;;;6.25;1.33;;;21.90;99.90;;;;;;4990361;28;20041;-74
2022/06/14 09:25:59;;;;;;;4.93;1.40;;;21.50;99.90;;;;;;5005629;28;20049;-75
2022/06/14 09:28:43;;;;;;;3.78;1.33;;;21.70;99.90;;;;;;4996961;28;20131;-74
2022/06/14 09:31:16;;;;;;;2.85;1.00;;;22.40;99.90;;;;;;4997337;28;20050;-74
2022/06/14 09:34:10;;;;;;;3.97;1.20;;;22.90;99.90;;;;;;5005079;28;20465;-75
2022/06/14 09:36:45;;;;;;;3.95;1.17;;;23.40;99.90;;;;;;5005434;28;20073;-74
2022/06/14 09:39:29;;;;;;;6.15;1.67;;;23.80;99.90;;;;;;5013700;28;20104;-74
2022/06/14 09:42:19;;;;;;;4.85;1.65;;;24.20;99.50;;;;;;5005955;28;20045;-74
2022/06/14 09:45:15;;;;;;;4.20;1.50;;;24.30;98.20;;;;;;5006817;28;20104;-75
2022/06/14 09:47:52;;;;;;;3.42;1.10;;;24.60;97.60;;;;;;5001169;28;20046;-75
2022/06/14 09:50:33;;;;;;;5.57;1.30;;;24.70;96.70;;;;;;5005634;28;20128;-74
2022/06/14 09:53:34;;;;;;;3.72;1.02;;;24.40;96.00;;;;;;5008291;28;20081;-74
2022/06/14 09:56:16;;;;;;;7.65;1.30;;;23.80;95.60;;;;;;4990422;28;20129;-74
2022/06/14 09:59:03;;;;;;;5.40;1.40;;;23.10;95.20;;;;;;5005823;28;20149;-74
2022/06/14 10:01:38;;;;;;;4.03;1.33;;;22.50;96.40;;;;;;5007365;28;20069;-74
2022/06/14 10:04:34;;;;;;;4.90;1.60;;;21.90;98.20;;;;;;5005904;28;20054;-75
2022/06/14 10:07:15;;;;;;;4.68;1.35;;;21.40;99.10;;;;;;5002207;28;20042;-75
2022/06/14 10:09:52;;;;;;;6.03;1.33;;;20.90;99.90;;;;;;4993000;28;20388;-75
2022/06/14 10:12:27;;;;;;;4.57;1.30;;;20.50;99.90;;;;;;4998606;28;20093;-75
2022/06/14 10:15:12;;;;;;;8.45;1.63;;;20.20;99.90;;;;;;5001383;28;20351;-74
2022/06/14 10:17:40;;;;;;;4.55;1.35;;;19.80;99.90;;;;;;5004168;28;20593;-75
2022/06/14 10:20:35;;;;;;;4.95;1.60;;;19.60;99.90;;;;;;5001218;28;20045;-75
2022/06/14 10:23:24;;;;;;;5.43;1.40;;;19.50;99.90;;;;;;5001143;28;20085;-75
2022/06/14 10:28:43;;;;;;;6.90;1.70;;;19.20;99.90;;;;;;5011848;28;20061;-75
2022/06/14 10:31:54;;;;;;;8.15;1.77;;;19.00;99.90;;;;;;4998982;28;20483;-75
2022/06/14 10:34:54;;;;;;;4.60;1.40;;;18.90;99.90;;;;;;5010485;28;20125;-75
2022/06/14 10:37:30;;;;;;;6.25;1.75;;;18.70;99.90;;;;;;4988211;28;20081;-75
2022/06/14 10:40:21;;;;;;;5.90;1.48;;;18.70;99.90;;;;;;4982759;28;20046;-75
2022/06/14 10:42:46;;;;;;;6.43;1.73;;;18.60;99.90;;;;;;4998125;28;20400;-75
2022/06/14 10:45:19;;;;;;;5.22;1.60;;;18.50;99.90;;;;;;4986871;28;20115;-75
2022/06/14 10:48:19;;;;;;;6.57;1.75;;;18.50;99.90;;;;;;5009075;28;20529;-74
2022/06/14 10:51:11;;;;;;;7.07;2.05;;;18.60;99.90;;;;;;5008236;28;20107;-74
2022/06/14 10:53:59;;;;;;;5.38;2.00;;;18.60;99.90;;;;;;5006426;28;20033;-73
2022/06/14 10:56:37;;;;;;;5.93;1.92;;;18.60;99.90;;;;;;5018927;28;20046;-74
2022/06/14 10:59:21;;;;;;;5.72;1.95;;;18.60;99.90;;;;;;5006504;28;20053;-73
2022/06/14 11:02:18;;;;;;;6.38;2.10;;;18.70;99.90;;;;;;5007094;28;20394;-74
2022/06/14 11:05:05;;;;;;;8.68;1.65;;;18.80;99.90;;;;;;4989854;28;20041;-75
2022/06/14 11:07:57;;;;;;;6.88;1.77;;;18.80;99.90;;;;;;5009686;28;20046;-74
2022/06/14 11:11:09;;;;;;;7.53;1.60;;;18.80;99.90;;;;;;4989405;28;20085;-75
2022/06/14 11:13:49;;;;;;;6.00;2.15;;;18.80;99.90;;;;;;5000798;28;20042;-75
2022/06/14 11:16:14;;;;;;;8.60;2.08;;;18.90;99.90;;;;;;5008143;28;20081;-75
2022/06/14 11:19:03;;;;;;;7.05;2.03;;;18.90;99.90;;;;;;4989587;28;20034;-75
2022/06/14 11:21:54;;;;;;;6.53;1.70;;;19.00;99.90;;;;;;5002650;28;20129;-75
2022/06/14 11:24:42;;;;;;;8.67;2.10;;;19.10;99.90;;;;;;4988966;28;20045;-75
2022/06/14 11:27:26;;;;;;;7.43;2.10;;;19.20;99.90;;;;;;4975862;28;20524;-70
2022/06/14 11:30:19;;;;;;;8.00;2.45;;;19.30;99.90;;;;;;5000293;28;20038;-68
2022/06/14 11:32:56;;;;;;;9.05;2.40;;;19.60;99.90;;;;;;5005033;28;20465;-69
2022/06/14 11:35:37;;;;;;;6.90;1.80;;;20.10;99.90;;;;;;5009891;28;20041;-71
2022/06/14 11:38:34;;;;;;;8.48;2.35;;;20.10;99.90;;;;;;4991065;28;20049;-69
2022/06/14 11:41:05;;;;;;;7.70;2.00;;;20.10;99.90;;;;;;4990041;28;20046;-69
2022/06/14 11:43:59;;;;;;;6.88;1.52;;;20.10;99.90;;;;;;4987573;28;20411;-69
2022/06/14 11:46:58;;;;;;;7.78;2.00;;;19.90;99.90;;;;;;5006120;28;20399;-74
2022/06/14 11:49:40;;;;;;;8.50;1.90;;;19.80;99.90;;;;;;4976993;28;20944;-73
2022/06/14 11:52:18;;;;;;;;;;;19.60;99.90;;;;;;5007833;28;20402;-74
2022/06/14 11:55:27;;;;;;;7.22;1.80;;;19.50;99.90;;;;;;4996586;28;19976;-73
2022/06/14 11:57:58;;;;;;;6.35;2.20;;;19.40;99.90;;;;;;4969311;28;20571;-74
2022/06/14 12:00:24;;;;;;;5.70;1.55;;;19.20;99.90;;;;;;5004490;28;20407;-74
2022/06/14 12:03:23;;;;;;;5.90;1.80;;;19.20;99.90;;;;;;4992690;28;20041;-73
2022/06/14 12:06:20;;;;;;;8.27;1.65;;;19.20;99.90;;;;;;4991465;28;20045;-74
2022/06/14 12:09:14;;;;;;;8.02;2.03;;;19.30;99.90;;;;;;4981157;28;20049;-74
2022/06/14 12:11:48;;;;;;;4.72;1.40;;;19.40;99.90;;;;;;4973892;28;20483;-74
2022/06/14 12:14:29;;;;;;;6.03;2.00;;;19.50;99.90;;;;;;4991473;28;20058;-74
2022/06/14 12:17:05;;;;;;;7.00;2.40;;;19.60;99.90;;;;;;5009587;28;20353;-73
2022/06/14 12:19:33;;;;;;;6.50;1.55;;;19.80;99.90;;;;;;4991845;28;20058;-74
2022/06/14 12:22:28;;;;;;;5.28;1.73;;;19.90;99.90;;;;;;5009014;28;20049;-73
2022/06/14 12:28:03;;;;;;;;;;;20.10;99.90;;;;;;4996166;28;20082;-74
2022/06/14 12:30:32;;;;;;;9.85;1.80;;;20.10;99.90;;;;;;4997144;28;19925;-74
2022/06/14 12:33:13;;;;;;;7.20;1.70;;;20.10;99.90;;;;;;4990894;28;20073;-74
2022/06/14 12:35:49;;;;;;;6.00;1.85;;;20.10;99.90;;;;;;4984447;28;20081;-74
2022/06/14 12:38:24;;;;;;;8.05;2.33;;;20.10;99.90;;;;;;4991547;28;20048;-74
2022/06/14 12:41:20;;;;;;;5.55;1.83;;;20.10;99.90;;;;;;4991193;28;20421;-73
2022/06/14 12:44:33;;;;;;;8.70;2.38;;;20.00;99.90;;;;;;4989279;28;20046;-74
2022/06/14 12:47:01;;;;;;;5.65;1.90;;;20.00;99.90;;;;;;4942874;28;20050;-73
2022/06/14 12:49:39;;;;;;;7.45;1.98;;;19.90;99.90;;;;;;4985565;28;20518;-73
2022/06/14 12:52:24;;;;;;;6.32;1.50;;;19.90;99.90;;;;;;5004057;28;20577;-73
2022/06/14 12:54:56;;;;;;;5.53;1.63;;;19.90;99.90;;;;;;4988281;28;20131;-73
2022/06/14 12:57:39;;;;;;;5.53;1.77;;;19.90;99.90;;;;;;4987241;28;20517;-73
2022/06/14 13:00:31;;;;;;;7.35;2.40;;;19.90;99.90;;;;;;5004916;28;20422;-74
2022/06/14 13:03:30;;;;;;;9.00;2.30;;;19.90;99.90;;;;;;4951556;28;20053;-73
2022/06/14 13:06:25;;;;;;;5.97;2.20;;;19.80;99.90;;;;;;4984919;28;20053;-74
2022/06/14 13:09:05;;;;;;;5.38;1.50;;;19.70;99.90;;;;;;5002828;28;20111;-74
2022/06/14 13:11:49;;;;;;;7.25;2.30;;;19.70;99.90;;;;;;4992263;28;20041;-72
2022/06/14 13:14:22;;;;;;;7.72;1.90;;;19.80;99.90;;;;;;4972343;28;20049;-73
2022/06/14 13:16:59;;;;;;;6.28;1.88;;;19.80;99.90;;;;;;4999742;28;20435;-73
2022/06/14 13:19:45;;;;;;;5.90;2.13;;;19.80;99.90;;;;;;5003763;28;20057;-73
2022/06/14 13:22:27;;;;;;;5.85;1.70;;;19.90;99.90;;;;;;5004112;28;20050;-73
2022/06/14 13:25:05;;;;;;;6.57;1.75;;;19.90;99.90;;;;;;4986509;28;20188;-73
2022/06/14 13:28:02;;;;;;;6.03;1.70;;;19.90;99.90;;;;;;4996499;28;20056;-73
2022/06/14 13:30:53;;;;;;;7.63;1.90;;;20.00;99.90;;;;;;4986252;28;20141;-73
2022/06/14 13:33:48;;;;;;;7.05;2.17;;;20.00;99.90;;;;;;4996681;28;20053;-73
2022/06/14 13:36:35;;;;;;;7.13;2.30;;;20.10;99.90;;;;;;5004396;28;20566;-73
2022/06/14 13:39:10;;;;;;;6.25;1.67;;;20.20;99.90;;;;;;5003802;28;20486;-73
2022/06/14 13:41:40;;;;;;;6.75;2.30;;;20.30;99.90;;;;;;4999207;28;20286;-73
2022/06/14 13:44:18;;;;;;;8.23;2.22;;;20.50;99.90;;;;;;4973690;28;20034;-74
2022/06/14 13:46:51;;;;;;;5.90;1.80;;;20.60;99.90;;;;;;4977081;28;20053;-75
2022/06/14 13:49:29;;;;;;;5.60;1.60;;;20.70;99.90;;;;;;4989118;28;20038;-74
2022/06/14 13:52:20;;;;;;;5.65;1.80;;;20.70;99.90;;;;;;4995907;28;20041;-73
2022/06/14 13:55:14;;;;;;;7.40;2.10;;;20.70;99.90;;;;;;5001619;28;20080;-73
2022/06/14 13:57:53;;;;;;;6.97;1.77;;;20.60;99.90;;;;;;5003494;28;20041;-73
2022/06/14 14:00:57;;;;;;;10.02;1.75;;;20.60;99.90;;;;;;5005374;28;20649;-73
2022/06/14 14:03:54;;;;;;;5.53;1.95;;;20.40;99.90;;;;;;5004269;28;20125;-73
2022/06/14 14:06:22;;;;;;;7.95;2.13;;;20.40;99.90;;;;;;4987355;28;20402;-72
2022/06/14 14:09:13;;;;;;;7.13;2.17;;;20.10;99.90;;;;;;5007780;28;20053;-74
2022/06/14 14:11:52;;;;;;;7.45;2.13;;;20.10;99.90;;;;;;4987075;28;20499;-75